Time;durP1;ratioP1;P1;durP2;ratioP2;P2;SDS_P1;SDS_P2;PMS_P1;PMS_P2;Temp;Humidity;BMP_temperature;BMP_pressure;BME280_temperature;BME280_humidity;BME280_pressure;Samples;Min_cycle;Max_cycle;Signal;HPM_P1;HPM_P2
2022/11/24 00:01:21;;;;;;;15.02;3.47;;;7.30;99.90;;;;;;5091737;28;20166;-80
2022/11/24 00:04:04;;;;;;;16.25;3.67;;;7.20;99.90;;;;;;5092010;28;20038;-80
2022/11/24 00:06:31;;;;;;;17.92;3.90;;;7.30;99.90;;;;;;5091550;28;20107;-80
2022/11/24 00:08:58;;;;;;;12.38;3.10;;;7.30;99.90;;;;;;5091729;28;20035;-80
2022/11/24 00:11:28;;;;;;;13.45;3.70;;;7.30;99.90;;;;;;5091660;28;20048;-70
2022/11/24 00:13:54;;;;;;;14.60;4.00;;;7.30;99.90;;;;;;5073633;28;20480;-79
2022/11/24 00:16:25;;;;;;;13.80;3.85;;;7.30;99.90;;;;;;5091420;28;20044;-79
2022/11/24 00:18:53;;;;;;;11.80;4.13;;;7.30;99.90;;;;;;5091876;28;20464;-79
2022/11/24 00:21:20;;;;;;;18.48;3.78;;;7.20;99.90;;;;;;5092064;28;20017;-77
2022/11/24 00:23:47;;;;;;;13.88;3.25;;;7.20;99.90;;;;;;5073167;28;20101;-77
2022/11/24 00:26:16;;;;;;;15.27;3.30;;;7.20;99.90;;;;;;5092447;28;20498;-80
2022/11/24 00:28:43;;;;;;;17.20;3.75;;;7.20;99.90;;;;;;5091846;28;20063;-75
2022/11/24 00:31:28;;;;;;;17.52;5.72;;;7.20;99.90;;;;;;5075468;28;20548;-79
2022/11/24 00:33:58;;;;;;;11.70;3.50;;;7.30;99.90;;;;;;5095713;28;20492;-79
2022/11/24 00:36:26;;;;;;;12.88;2.65;;;7.30;99.90;;;;;;5094867;28;20055;-69
2022/11/24 00:38:56;;;;;;;15.63;3.63;;;7.30;99.90;;;;;;5095824;28;20043;-78
2022/11/24 00:41:23;;;;;;;14.75;3.38;;;7.30;99.90;;;;;;5095800;28;20024;-79
2022/11/24 00:43:49;;;;;;;12.38;3.08;;;7.30;99.90;;;;;;5094889;28;20073;-79
2022/11/24 00:46:15;;;;;;;19.25;3.40;;;7.30;99.90;;;;;;5095583;28;20031;-80
2022/11/24 00:48:41;;;;;;;12.52;2.90;;;7.30;99.90;;;;;;5095319;28;20395;-75
2022/11/24 00:51:09;;;;;;;11.77;2.70;;;7.20;99.90;;;;;;5094894;28;20017;-73
2022/11/24 00:53:35;;;;;;;22.58;3.63;;;7.20;99.90;;;;;;5077041;28;20463;-74
2022/11/24 00:56:04;;;;;;;10.95;2.70;;;7.20;99.90;;;;;;5095519;28;20024;-77
2022/11/24 00:58:31;;;;;;;16.13;3.78;;;7.20;99.90;;;;;;5094332;28;20058;-79
2022/11/24 01:01:05;;;;;;;12.05;2.97;;;7.20;99.90;;;;;;5095422;28;20024;-79
2022/11/24 01:03:32;;;;;;;16.13;3.30;;;7.20;99.90;;;;;;5094706;28;20028;-73
2022/11/24 01:06:06;;;;;;;9.75;2.42;;;7.20;99.90;;;;;;5094541;28;20422;-79
2022/11/24 01:08:32;;;;;;;13.70;3.05;;;7.20;99.90;;;;;;5094460;28;20028;-80
2022/11/24 01:11:07;;;;;;;11.88;2.90;;;7.20;99.90;;;;;;5094920;28;20028;-80
2022/11/24 01:13:33;;;;;;;10.43;2.55;;;7.20;99.90;;;;;;5093844;28;20480;-79
2022/11/24 01:15:58;;;;;;;12.90;2.50;;;7.20;99.90;;;;;;5094818;28;20047;-80
2022/11/24 01:18:24;;;;;;;14.40;4.05;;;7.10;99.90;;;;;;5094338;28;20492;-78
2022/11/24 01:20:50;;;;;;;9.35;3.85;;;7.10;99.90;;;;;;5093327;28;20428;-80
2022/11/24 01:23:15;;;;;;;14.23;2.60;;;7.00;99.90;;;;;;5110430;28;20047;-79
2022/11/24 01:25:41;;;;;;;9.93;2.55;;;7.00;99.90;;;;;;5093786;28;20072;-80
2022/11/24 01:28:06;;;;;;;14.45;2.78;;;7.00;99.90;;;;;;5094847;28;20375;-79
2022/11/24 01:30:32;;;;;;;16.90;4.97;;;7.00;99.90;;;;;;5094301;28;20031;-80
2022/11/24 01:32:58;;;;;;;11.95;3.08;;;7.00;99.90;;;;;;5093672;28;20379;-80
2022/11/24 01:35:23;;;;;;;12.48;3.05;;;6.90;99.90;;;;;;5094081;28;20035;-68
2022/11/24 01:37:49;;;;;;;9.55;3.13;;;7.00;99.90;;;;;;5094607;28;20135;-80
2022/11/24 01:40:15;;;;;;;14.98;3.20;;;7.00;99.90;;;;;;5076015;28;20531;-80
2022/11/24 01:42:51;;;;;;;8.95;3.13;;;7.00;99.90;;;;;;5093484;28;20032;-76
2022/11/24 01:45:40;;;;;;;9.45;2.40;;;6.90;99.90;;;;;;5094263;28;20028;-80
2022/11/24 01:48:31;;;;;;;12.88;3.15;;;6.90;99.90;;;;;;5092147;28;20016;-75
2022/11/24 01:51:16;;;;;;;11.27;2.60;;;6.90;99.90;;;;;;5094329;28;20032;-82
2022/11/24 01:53:45;;;;;;;11.75;3.28;;;6.90;99.90;;;;;;5093292;28;20047;-79
2022/11/24 01:56:12;;;;;;;10.02;3.80;;;6.80;99.90;;;;;;5094000;28;20054;-79
2022/11/24 01:58:41;;;;;;;13.20;3.45;;;6.80;99.90;;;;;;5093177;28;20476;-79
2022/11/24 02:01:07;;;;;;;10.45;3.47;;;6.90;99.90;;;;;;5093257;28;20540;-79
2022/11/24 02:03:38;;;;;;;11.95;3.63;;;6.90;99.90;;;;;;5093580;28;20066;-79
2022/11/24 02:06:10;;;;;;;11.85;2.70;;;6.90;99.90;;;;;;5076019;28;20020;-80
2022/11/24 02:08:46;;;;;;;8.63;2.50;;;6.90;99.90;;;;;;5092807;28;20103;-79
2022/11/24 02:11:12;;;;;;;9.30;2.60;;;7.00;99.90;;;;;;5073821;28;20032;-80
2022/11/24 02:13:40;;;;;;;7.93;3.28;;;6.90;99.90;;;;;;5073116;28;20024;-80
2022/11/24 02:16:07;;;;;;;8.90;2.67;;;6.90;99.90;;;;;;5054867;28;20436;-80
2022/11/24 02:18:33;;;;;;;12.20;3.42;;;6.90;99.90;;;;;;5088628;28;20039;-80
2022/11/24 02:21:00;;;;;;;11.43;3.17;;;6.90;99.90;;;;;;5073214;28;20024;-80
2022/11/24 02:23:47;;;;;;;25.90;4.53;;;6.90;99.90;;;;;;5072432;28;20111;-80
2022/11/24 02:26:31;;;;;;;14.13;4.88;;;7.00;99.90;;;;;;5073412;28;20028;-77
2022/11/24 02:28:57;;;;;;;14.88;4.78;;;7.10;99.90;;;;;;5072901;28;20529;-79
2022/11/24 02:31:23;;;;;;;19.85;6.03;;;7.20;99.90;;;;;;5055075;28;20028;-71
2022/11/24 02:33:49;;;;;;;15.15;5.25;;;7.20;99.90;;;;;;5072813;28;20020;-77
2022/11/24 02:36:15;;;;;;;12.35;4.25;;;7.20;99.90;;;;;;5088007;28;20479;-79
2022/11/24 02:38:40;;;;;;;15.82;4.82;;;7.20;99.90;;;;;;5072439;28;20064;-75
2022/11/24 02:41:10;;;;;;;13.65;5.40;;;7.20;99.90;;;;;;5072910;28;20056;-78
2022/11/24 02:43:42;;;;;;;17.27;4.97;;;7.20;99.90;;;;;;5071845;28;20049;-79
2022/11/24 02:46:09;;;;;;;18.00;5.40;;;7.30;99.90;;;;;;5072552;28;20549;-77
2022/11/24 02:48:36;;;;;;;17.58;5.05;;;7.20;99.90;;;;;;5072419;28;20021;-75
2022/11/24 02:51:01;;;;;;;11.32;4.78;;;7.20;99.90;;;;;;5072172;28;20047;-79
2022/11/24 02:53:27;;;;;;;15.23;5.68;;;7.10;99.90;;;;;;5072378;28;20025;-79
2022/11/24 02:55:53;;;;;;;15.20;4.43;;;7.10;99.90;;;;;;5071982;28;20021;-79
2022/11/24 02:58:19;;;;;;;13.32;4.10;;;7.00;99.90;;;;;;5072014;28;20062;-80
2022/11/24 03:00:44;;;;;;;15.35;3.92;;;7.00;99.90;;;;;;5072089;28;20025;-79
2022/11/24 03:03:10;;;;;;;10.88;3.33;;;7.00;99.90;;;;;;5072682;28;20074;-80
2022/11/24 03:05:36;;;;;;;12.60;2.28;;;6.90;99.90;;;;;;5053799;28;20016;-80
2022/11/24 03:08:02;;;;;;;12.57;2.38;;;6.90;99.90;;;;;;5072486;28;20029;-79
2022/11/24 03:10:28;;;;;;;8.15;2.40;;;6.80;99.90;;;;;;5072272;28;20055;-80
2022/11/24 03:12:54;;;;;;;11.43;2.95;;;6.90;99.90;;;;;;5071882;28;20392;-75
2022/11/24 03:15:20;;;;;;;14.35;3.28;;;6.80;99.90;;;;;;5072613;28;20040;-79
2022/11/24 03:17:46;;;;;;;13.10;2.67;;;6.80;99.90;;;;;;5087688;28;20450;-79
2022/11/24 03:20:12;;;;;;;10.10;2.50;;;6.80;99.90;;;;;;5071909;28;20017;-79
2022/11/24 03:22:38;;;;;;;13.05;2.80;;;6.80;99.90;;;;;;5071741;28;20491;-79
2022/11/24 03:25:04;;;;;;;18.50;2.97;;;6.90;99.90;;;;;;5071541;28;20013;-79
2022/11/24 03:27:30;;;;;;;16.67;2.63;;;6.80;99.90;;;;;;5071995;28;20101;-79
2022/11/24 03:29:56;;;;;;;9.85;2.35;;;6.90;99.90;;;;;;5072139;28;20059;-78
2022/11/24 03:32:22;;;;;;;7.85;2.55;;;6.90;99.90;;;;;;5071299;28;20056;-66
2022/11/24 03:34:47;;;;;;;12.57;2.35;;;6.80;99.90;;;;;;5071739;28;20039;-75
2022/11/24 03:37:13;;;;;;;9.77;2.58;;;6.90;99.90;;;;;;5072117;28;20045;-74
2022/11/24 03:39:39;;;;;;;14.30;2.50;;;6.90;99.90;;;;;;5071063;28;20016;-71
2022/11/24 03:42:04;;;;;;;16.88;3.08;;;6.90;99.90;;;;;;5071878;28;20028;-75
2022/11/24 03:44:30;;;;;;;8.15;2.47;;;6.90;99.90;;;;;;5071494;28;20021;-77
2022/11/24 03:46:55;;;;;;;12.50;2.45;;;7.00;99.90;;;;;;5071238;28;20017;-78
2022/11/24 03:49:21;;;;;;;10.38;2.38;;;7.00;99.90;;;;;;5071942;28;20035;-75
2022/11/24 03:51:47;;;;;;;18.92;2.97;;;7.00;99.90;;;;;;5071729;28;20551;-79
2022/11/24 03:54:12;;;;;;;12.75;2.83;;;7.10;99.90;;;;;;5071583;28;20028;-73
2022/11/24 03:56:38;;;;;;;12.15;2.63;;;7.00;99.90;;;;;;5071755;28;20384;-78
2022/11/24 03:59:04;;;;;;;9.07;2.20;;;7.00;99.90;;;;;;5071948;28;20093;-73
2022/11/24 04:01:29;;;;;;;13.40;2.63;;;7.10;99.90;;;;;;5070972;28;20082;-80
2022/11/24 04:03:55;;;;;;;20.60;3.20;;;7.10;99.90;;;;;;5071466;28;20028;-78
2022/11/24 04:06:21;;;;;;;11.75;2.50;;;7.10;99.90;;;;;;5080089;28;20028;-75
2022/11/24 04:08:46;;;;;;;13.93;3.28;;;7.10;99.90;;;;;;5094796;28;20023;-67
2022/11/24 04:12:42;;;;;;;11.70;3.00;;;7.10;99.90;;;;;;5095924;28;20063;-62
2022/11/24 04:13:58;;;;;;;9.65;2.92;;;7.00;99.90;;;;;;5075142;28;20032;-67
2022/11/24 04:16:23;;;;;;;8.65;2.20;;;7.00;99.90;;;;;;5078675;28;20054;-62
2022/11/24 04:18:52;;;;;;;12.73;2.28;;;7.00;99.90;;;;;;5095412;28;20119;-68
2022/11/24 04:21:18;;;;;;;11.55;2.55;;;7.00;99.90;;;;;;5093908;28;20020;-62
2022/11/24 04:23:44;;;;;;;16.00;3.80;;;7.00;99.90;;;;;;5094400;28;20044;-79
2022/11/24 04:26:10;;;;;;;10.07;3.17;;;7.00;99.90;;;;;;5095299;28;20366;-80
2022/11/24 04:28:35;;;;;;;16.75;2.90;;;7.00;99.90;;;;;;5094773;28;20031;-80
2022/11/24 04:31:02;;;;;;;15.60;3.13;;;7.00;99.90;;;;;;5095428;28;20024;-80
2022/11/24 04:33:28;;;;;;;12.57;2.70;;;7.00;99.90;;;;;;5095021;28;20056;-79
2022/11/24 04:35:53;;;;;;;12.07;3.65;;;7.10;99.90;;;;;;5095105;28;20030;-80
2022/11/24 04:38:19;;;;;;;16.13;3.88;;;7.10;99.90;;;;;;5077285;28;20489;-79
2022/11/24 04:40:44;;;;;;;15.95;2.55;;;7.10;99.90;;;;;;5095010;28;20435;-79
2022/11/24 04:43:10;;;;;;;10.23;2.47;;;7.10;99.90;;;;;;5076675;28;20032;-79
2022/11/24 04:45:36;;;;;;;12.55;2.20;;;7.10;99.90;;;;;;5094827;28;20016;-79
2022/11/24 04:48:02;;;;;;;13.23;2.38;;;7.10;99.90;;;;;;5077011;28;20165;-79
2022/11/24 04:50:28;;;;;;;16.73;3.00;;;7.00;99.90;;;;;;5094408;28;20106;-79
2022/11/24 04:52:54;;;;;;;7.78;2.38;;;7.00;99.90;;;;;;5095347;28;20439;-77
2022/11/24 04:55:19;;;;;;;8.50;2.45;;;7.00;99.90;;;;;;5095457;28;20024;-79
2022/11/24 04:57:45;;;;;;;14.27;2.97;;;7.00;99.90;;;;;;5075837;28;20029;-79
2022/11/24 05:00:11;;;;;;;15.45;3.17;;;7.00;99.90;;;;;;5095172;28;20464;-79
2022/11/24 05:02:37;;;;;;;10.45;2.95;;;7.00;99.90;;;;;;5076257;28;20028;-80
2022/11/24 05:05:03;;;;;;;14.18;2.85;;;7.00;99.90;;;;;;5094597;28;20031;-79
2022/11/24 05:07:28;;;;;;;11.77;2.80;;;7.10;99.90;;;;;;5094374;28;20016;-76
2022/11/24 05:12:38;;;;;;;12.18;3.03;;;7.10;99.90;;;;;;5093028;28;20038;-77
2022/11/24 05:15:05;;;;;;;10.02;2.40;;;7.10;99.90;;;;;;5094584;28;20383;-77
2022/11/24 05:17:33;;;;;;;15.68;3.17;;;7.10;99.90;;;;;;5092685;28;20117;-61
2022/11/24 05:19:59;;;;;;;11.68;2.95;;;7.10;99.90;;;;;;5091186;28;20024;-79
2022/11/24 05:22:28;;;;;;;12.70;2.28;;;7.10;99.90;;;;;;5093966;28;20020;-79
2022/11/24 05:24:53;;;;;;;12.18;3.15;;;7.10;99.90;;;;;;5075605;28;20020;-80
2022/11/24 05:27:19;;;;;;;13.68;3.42;;;7.20;99.90;;;;;;5094291;28;20040;-75
2022/11/24 05:29:45;;;;;;;12.20;2.47;;;7.20;99.90;;;;;;5093761;28;20024;-79
2022/11/24 05:32:10;;;;;;;16.35;4.13;;;7.30;99.90;;;;;;5093582;28;20364;-79
2022/11/24 05:34:36;;;;;;;13.73;4.20;;;7.30;99.90;;;;;;5094231;28;20024;-79
2022/11/24 05:37:02;;;;;;;11.23;4.15;;;7.40;99.90;;;;;;5093944;28;20122;-79
2022/11/24 05:39:34;;;;;;;15.63;4.97;;;7.40;99.90;;;;;;5093317;28;20472;-79
2022/11/24 05:42:39;;;;;;;11.10;3.65;;;7.50;99.90;;;;;;5094123;28;20031;-80
2022/11/24 05:44:47;;;;;;;12.18;2.95;;;7.50;99.90;;;;;;5093472;28;20024;-75
2022/11/24 05:47:12;;;;;;;9.95;3.03;;;7.50;99.90;;;;;;5093029;28;20035;-80
2022/11/24 05:49:38;;;;;;;10.50;2.40;;;7.50;99.90;;;;;;5093650;28;20475;-80
2022/11/24 05:52:04;;;;;;;9.52;2.67;;;7.50;99.90;;;;;;5093332;28;20028;-79
2022/11/24 05:54:29;;;;;;;13.93;3.20;;;7.60;99.90;;;;;;5090957;28;20078;-80
2022/11/24 05:56:55;;;;;;;8.73;2.47;;;7.70;99.90;;;;;;5091922;28;20052;-80
2022/11/24 05:59:20;;;;;;;10.88;3.30;;;7.70;99.90;;;;;;5093755;28;20028;-78
2022/11/24 06:01:46;;;;;;;11.98;2.47;;;7.80;99.90;;;;;;5092831;28;20348;-80
2022/11/24 06:04:12;;;;;;;11.52;2.90;;;7.80;99.90;;;;;;5093279;28;20515;-77
2022/11/24 06:06:37;;;;;;;10.88;2.30;;;7.80;99.90;;;;;;5093555;28;20024;-79
2022/11/24 06:09:03;;;;;;;10.13;2.35;;;7.90;99.90;;;;;;5075032;28;20434;-80
2022/11/24 06:11:29;;;;;;;6.53;2.33;;;7.90;99.90;;;;;;5093246;28;20073;-80
2022/11/24 06:13:55;;;;;;;9.90;1.88;;;7.90;99.90;;;;;;5074719;28;20012;-79
2022/11/24 06:16:20;;;;;;;7.78;2.92;;;7.90;99.90;;;;;;5093330;28;20492;-80
2022/11/24 06:18:46;;;;;;;12.48;2.78;;;7.80;99.90;;;;;;5092829;28;20032;-77
2022/11/24 06:21:11;;;;;;;11.45;2.50;;;7.80;99.90;;;;;;5092760;28;20028;-78
2022/11/24 06:23:37;;;;;;;8.25;2.05;;;7.80;99.90;;;;;;5092645;28;20038;-80
2022/11/24 06:26:03;;;;;;;12.10;2.63;;;7.80;99.90;;;;;;5093280;28;20024;-79
2022/11/24 06:28:29;;;;;;;8.73;2.20;;;7.80;99.90;;;;;;5092168;28;20094;-78
2022/11/24 06:30:58;;;;;;;8.65;2.22;;;7.80;99.90;;;;;;5093090;28;20459;-80
2022/11/24 06:33:24;;;;;;;4.63;1.98;;;7.90;99.90;;;;;;5093079;28;20028;-75
2022/11/24 06:35:49;;;;;;;7.40;1.77;;;7.90;99.90;;;;;;5090604;28;20024;-77
2022/11/24 06:38:15;;;;;;;5.93;2.30;;;7.90;99.90;;;;;;5076166;28;20058;-79
2022/11/24 06:40:41;;;;;;;4.57;1.63;;;7.90;99.90;;;;;;5074477;28;20046;-80
2022/11/24 06:43:07;;;;;;;6.43;2.40;;;8.00;99.90;;;;;;5074593;28;20463;-80
2022/11/24 06:45:32;;;;;;;6.20;1.90;;;8.00;99.90;;;;;;5095884;28;20020;-79
2022/11/24 06:47:58;;;;;;;5.22;2.00;;;8.00;99.90;;;;;;5115618;28;20028;-79
2022/11/24 06:50:23;;;;;;;5.43;1.95;;;8.00;99.90;;;;;;5112996;28;20028;-68
2022/11/24 06:52:49;;;;;;;7.50;2.58;;;8.00;99.90;;;;;;5115438;28;20360;-78
2022/11/24 06:55:15;;;;;;;6.10;1.92;;;8.00;99.90;;;;;;5114538;28;20062;-80
2022/11/24 06:57:41;;;;;;;6.47;2.28;;;8.10;99.90;;;;;;5106214;28;20067;-80
2022/11/24 07:00:07;;;;;;;5.43;2.15;;;8.00;99.90;;;;;;5109543;28;20028;-79
2022/11/24 07:02:33;;;;;;;9.05;2.67;;;8.10;99.90;;;;;;5098524;28;20034;-80
2022/11/24 07:04:59;;;;;;;6.13;2.40;;;8.10;99.90;;;;;;5092469;28;20034;-79
2022/11/24 07:07:25;;;;;;;6.18;2.30;;;8.00;99.90;;;;;;5093014;28;20032;-77
2022/11/24 07:09:50;;;;;;;6.80;2.47;;;8.00;99.90;;;;;;5070865;28;20028;-78
2022/11/24 07:12:16;;;;;;;6.53;1.95;;;8.00;99.90;;;;;;5100214;28;20030;-76
2022/11/24 07:14:41;;;;;;;3.70;1.88;;;8.00;99.90;;;;;;5110052;28;20129;-71
2022/11/24 07:17:07;;;;;;;4.82;1.90;;;7.90;99.90;;;;;;5112144;28;20092;-74
2022/11/24 07:19:33;;;;;;;4.75;1.98;;;7.90;99.90;;;;;;5093498;28;20028;-69
2022/11/24 07:21:58;;;;;;;5.53;1.95;;;7.90;99.90;;;;;;5108897;28;20028;-71
2022/11/24 07:24:24;;;;;;;3.72;2.10;;;7.90;99.90;;;;;;5107580;28;20034;-68
2022/11/24 07:26:50;;;;;;;7.13;2.50;;;7.90;99.90;;;;;;5110000;28;20023;-69
2022/11/24 07:29:15;;;;;;;7.47;2.70;;;7.90;99.90;;;;;;5090531;28;20026;-69
2022/11/24 07:31:41;;;;;;;6.13;3.20;;;7.90;99.90;;;;;;5087238;28;20894;-73
2022/11/24 07:34:07;;;;;;;4.68;2.53;;;7.90;99.90;;;;;;5106929;28;20073;-77
2022/11/24 07:36:32;;;;;;;8.18;3.00;;;7.90;99.90;;;;;;5112213;28;20027;-77
2022/11/24 07:38:58;;;;;;;7.22;3.63;;;7.90;99.90;;;;;;5111564;28;20072;-77
2022/11/24 07:41:24;;;;;;;10.07;3.88;;;7.90;99.90;;;;;;5093349;28;20088;-64
2022/11/24 07:43:50;;;;;;;5.53;2.90;;;7.90;99.90;;;;;;5112323;28;20033;-72
2022/11/24 07:46:17;;;;;;;7.80;3.50;;;8.00;99.90;;;;;;5112374;28;20023;-75
2022/11/24 07:48:44;;;;;;;6.63;3.50;;;8.00;99.90;;;;;;5111911;28;20024;-72
2022/11/24 07:51:09;;;;;;;7.20;3.55;;;8.10;99.90;;;;;;5112566;28;20068;-76
2022/11/24 07:53:36;;;;;;;8.55;4.35;;;8.10;99.90;;;;;;5092961;28;20376;-72
2022/11/24 07:56:03;;;;;;;7.78;4.07;;;8.10;99.90;;;;;;5112289;28;20024;-74
2022/11/24 07:58:31;;;;;;;9.60;4.93;;;8.10;99.90;;;;;;5093667;28;20027;-71
2022/11/24 08:00:57;;;;;;;12.23;5.03;;;8.10;99.90;;;;;;5111449;28;20016;-70
2022/11/24 08:03:24;;;;;;;12.70;5.35;;;8.20;99.90;;;;;;5112291;28;20106;-66
2022/11/24 08:05:57;;;;;;;10.90;6.13;;;8.20;99.90;;;;;;5093891;28;20065;-80
2022/11/24 08:08:23;;;;;;;9.52;5.38;;;8.20;99.90;;;;;;5111852;28;20023;-67
2022/11/24 08:10:49;;;;;;;13.85;5.55;;;8.20;99.90;;;;;;5112255;28;20024;-75
2022/11/24 08:13:15;;;;;;;16.83;5.47;;;8.20;99.90;;;;;;5112300;28;20038;-74
2022/11/24 08:15:40;;;;;;;15.93;7.18;;;8.20;99.90;;;;;;5111207;28;20514;-78
2022/11/24 08:18:06;;;;;;;11.65;5.78;;;8.20;99.90;;;;;;5112091;28;20032;-78
2022/11/24 08:20:32;;;;;;;15.63;6.07;;;8.20;99.90;;;;;;5111426;28;20080;-78
2022/11/24 08:22:58;;;;;;;11.45;6.50;;;8.20;99.90;;;;;;5112530;28;20020;-78
2022/11/24 08:25:31;;;;;;;13.57;6.95;;;8.20;99.90;;;;;;5112053;28;20479;-71
2022/11/24 08:28:02;;;;;;;14.23;6.25;;;8.20;99.90;;;;;;5111651;28;20510;-78
2022/11/24 08:30:28;;;;;;;13.77;6.78;;;8.30;99.90;;;;;;5112229;28;20077;-79
2022/11/24 08:32:53;;;;;;;11.93;6.05;;;8.30;99.90;;;;;;5112050;28;20035;-78
2022/11/24 08:35:19;;;;;;;10.50;5.70;;;8.30;99.90;;;;;;5111981;28;20026;-78
2022/11/24 08:37:45;;;;;;;10.35;5.82;;;8.30;99.90;;;;;;5111637;28;20032;-78
2022/11/24 08:40:11;;;;;;;17.38;5.88;;;8.20;99.90;;;;;;5112183;28;20031;-79
2022/11/24 08:42:37;;;;;;;13.18;5.72;;;8.20;99.90;;;;;;5111085;28;20023;-78
2022/11/24 08:45:03;;;;;;;13.55;6.18;;;8.20;99.90;;;;;;5112218;28;20173;-78
2022/11/24 08:47:29;;;;;;;16.92;6.63;;;8.20;99.90;;;;;;5111886;28;20024;-78
2022/11/24 08:49:54;;;;;;;15.13;6.80;;;8.20;99.90;;;;;;5111462;28;20035;-78
2022/11/24 08:52:20;;;;;;;14.88;7.53;;;8.20;99.90;;;;;;5112680;28;20096;-79
2022/11/24 08:54:45;;;;;;;13.05;6.60;;;8.20;99.90;;;;;;5115201;28;20101;-78
2022/11/24 08:57:13;;;;;;;13.45;6.82;;;8.30;99.90;;;;;;5115000;28;20046;-78
2022/11/24 08:59:39;;;;;;;13.73;6.93;;;8.30;99.90;;;;;;5115342;28;20049;-79
2022/11/24 09:02:05;;;;;;;14.30;7.18;;;8.30;99.90;;;;;;5115433;28;20061;-77
2022/11/24 09:04:30;;;;;;;15.10;6.65;;;8.30;99.90;;;;;;5114703;28;20486;-78
2022/11/24 09:06:57;;;;;;;12.32;6.05;;;8.30;99.90;;;;;;5115855;28;20016;-80
2022/11/24 09:09:23;;;;;;;11.15;6.13;;;8.20;99.90;;;;;;5115111;28;20480;-74
2022/11/24 09:11:48;;;;;;;13.27;5.88;;;8.20;99.90;;;;;;5114801;28;20035;-78
2022/11/24 09:14:15;;;;;;;14.32;5.45;;;8.30;99.90;;;;;;5115229;28;20043;-79
2022/11/24 09:16:40;;;;;;;13.00;5.30;;;8.30;99.90;;;;;;5114270;28;20069;-76
2022/11/24 09:19:06;;;;;;;13.20;5.75;;;8.20;99.90;;;;;;5114902;28;20039;-79
2022/11/24 09:21:36;;;;;;;10.63;5.30;;;8.20;99.90;;;;;;5114673;28;20051;-77
2022/11/24 09:24:02;;;;;;;11.45;5.80;;;8.20;99.90;;;;;;5096246;28;20047;-78
2022/11/24 09:26:33;;;;;;;12.65;5.13;;;8.20;99.90;;;;;;5114559;28;20041;-79
2022/11/24 09:28:59;;;;;;;10.02;5.30;;;8.20;99.90;;;;;;5115331;28;20016;-79
2022/11/24 09:31:28;;;;;;;10.82;4.60;;;8.20;99.90;;;;;;5113923;28;20472;-79
2022/11/24 09:33:54;;;;;;;10.43;4.32;;;8.30;99.90;;;;;;5096330;28;20019;-79
2022/11/24 09:36:20;;;;;;;11.50;4.70;;;8.30;99.90;;;;;;5115131;28;20096;-75
2022/11/24 09:38:46;;;;;;;12.40;4.75;;;8.20;99.90;;;;;;5095328;28;20035;-78
2022/11/24 09:41:56;;;;;;;12.90;5.72;;;8.30;99.90;;;;;;5114876;28;20023;-76
2022/11/24 09:45:00;;;;;;;13.45;5.25;;;8.30;99.90;;;;;;5096153;28;20034;-74
2022/11/24 09:47:52;;;;;;;10.30;5.15;;;8.30;99.90;;;;;;5096099;28;20027;-79
2022/11/24 09:50:32;;;;;;;10.52;4.47;;;8.30;99.90;;;;;;5114376;28;20031;-78
2022/11/24 09:53:04;;;;;;;12.20;5.03;;;8.40;99.90;;;;;;5113914;28;20020;-71
2022/11/24 09:55:50;;;;;;;11.05;4.97;;;8.40;99.90;;;;;;5114000;28;20026;-78
2022/11/24 09:58:34;;;;;;;9.20;4.45;;;8.50;99.90;;;;;;5114186;28;20081;-76
2022/11/24 10:01:00;;;;;;;19.95;5.82;;;8.60;99.90;;;;;;5113455;28;20468;-76
2022/11/24 10:03:37;;;;;;;12.38;5.40;;;8.60;99.90;;;;;;5095178;28;20019;-73
2022/11/24 10:06:11;;;;;;;15.52;5.28;;;8.60;99.90;;;;;;5095254;28;20024;-73
2022/11/24 10:08:37;;;;;;;11.77;4.45;;;8.60;99.90;;;;;;5095582;28;20059;-70
2022/11/24 10:11:13;;;;;;;12.10;4.82;;;8.60;99.90;;;;;;5114439;28;20058;-69
2022/11/24 10:13:56;;;;;;;13.30;4.72;;;8.60;99.90;;;;;;5112954;28;20474;-72
2022/11/24 10:16:42;;;;;;;10.55;4.70;;;8.60;99.90;;;;;;5095295;28;20486;-70
2022/11/24 10:19:33;;;;;;;8.45;4.03;;;8.70;99.90;;;;;;5114053;28;20036;-76
2022/11/24 10:22:26;;;;;;;11.98;4.78;;;8.70;99.90;;;;;;5112816;28;20026;-75
2022/11/24 10:25:05;;;;;;;9.90;4.13;;;8.70;99.90;;;;;;5085059;28;20400;-80
2022/11/24 10:27:45;;;;;;;10.60;4.00;;;8.70;99.90;;;;;;5094328;28;20016;-79
2022/11/24 10:30:23;;;;;;;8.55;3.58;;;8.70;99.90;;;;;;5095273;28;20165;-78
2022/11/24 10:32:55;;;;;;;15.38;4.25;;;8.60;99.90;;;;;;5113289;28;20110;-79
2022/11/24 10:35:29;;;;;;;10.80;3.90;;;8.70;99.90;;;;;;5112925;28;20100;-76
2022/11/24 10:38:06;;;;;;;7.45;2.90;;;8.70;99.90;;;;;;5113072;28;20543;-78
2022/11/24 10:40:40;;;;;;;8.77;3.10;;;8.70;99.90;;;;;;5094645;28;20031;-79
2022/11/24 10:43:09;;;;;;;9.52;3.13;;;8.80;99.90;;;;;;5093879;28;20358;-79
2022/11/24 10:45:38;;;;;;;8.27;3.22;;;8.80;99.90;;;;;;5094809;28;20035;-78
2022/11/24 10:48:24;;;;;;;6.55;2.55;;;8.90;99.90;;;;;;5112755;28;20483;-79
2022/11/24 10:50:53;;;;;;;8.90;2.65;;;9.00;99.90;;;;;;5113034;28;20019;-79
2022/11/24 10:53:24;;;;;;;12.45;3.60;;;9.00;99.90;;;;;;5112718;28;20027;-78
2022/11/24 10:55:56;;;;;;;8.38;3.00;;;9.10;99.90;;;;;;5112342;28;20027;-79
2022/11/24 10:58:28;;;;;;;;;;;9.10;99.90;;;;;;5094802;28;20038;-70
2022/11/24 11:00:55;;;;;;;8.13;2.67;;;9.10;99.90;;;;;;5112889;28;19949;-79
2022/11/24 11:03:21;;;;;;;9.95;2.90;;;9.10;99.90;;;;;;5111757;28;20019;-78
2022/11/24 11:05:51;;;;;;;5.78;3.28;;;9.10;99.90;;;;;;5112592;28;20016;-79
2022/11/24 11:08:21;;;;;;;8.82;2.97;;;9.10;99.90;;;;;;5112440;28;20149;-79
2022/11/24 11:10:49;;;;;;;14.65;3.00;;;9.20;99.90;;;;;;5111959;28;20019;-77
2022/11/24 11:13:26;;;;;;;11.20;3.00;;;9.30;99.90;;;;;;5112345;28;20028;-79
2022/11/24 11:15:53;;;;;;;11.00;2.58;;;9.30;99.90;;;;;;5111708;28;20073;-79
2022/11/24 11:18:20;;;;;;;14.93;3.35;;;9.30;99.90;;;;;;5111706;28;20023;-78
2022/11/24 11:20:54;;;;;;;12.13;3.25;;;9.40;99.90;;;;;;5111905;28;20085;-75
2022/11/24 11:23:29;;;;;;;6.70;2.88;;;9.40;99.90;;;;;;5111485;28;20429;-78
2022/11/24 11:26:16;;;;;;;10.27;2.75;;;9.40;99.90;;;;;;5093895;28;20584;-78
2022/11/24 11:29:00;;;;;;;10.27;2.85;;;9.50;99.90;;;;;;5111855;28;20103;-77
2022/11/24 11:31:26;;;;;;;8.27;2.40;;;9.50;99.90;;;;;;5111181;28;20535;-74
2022/11/24 11:33:59;;;;;;;7.03;2.97;;;9.50;99.90;;;;;;5112240;28;20026;-77
2022/11/24 11:36:25;;;;;;;8.98;2.50;;;9.50;99.90;;;;;;5111893;28;20093;-73
2022/11/24 11:38:52;;;;;;;12.43;3.25;;;9.50;99.90;;;;;;5111754;28;20031;-68
2022/11/24 11:41:35;;;;;;;15.23;3.22;;;9.50;99.90;;;;;;5111995;28;20088;-77
2022/11/24 11:44:30;;;;;;;8.15;2.58;;;9.50;99.90;;;;;;5112141;28;20096;-78
2022/11/24 11:46:59;;;;;;;11.38;2.60;;;9.60;99.90;;;;;;5112232;28;20115;-76
2022/11/24 11:49:25;;;;;;;8.93;3.08;;;9.60;99.90;;;;;;5111730;28;20032;-79
2022/11/24 11:52:02;;;;;;;7.88;2.42;;;9.60;99.90;;;;;;5111328;28;20015;-79
2022/11/24 11:55:07;;;;;;;10.07;2.75;;;9.60;99.90;;;;;;5111657;28;20051;-74
2022/11/24 11:58:06;;;;;;;5.95;2.40;;;9.70;99.90;;;;;;5111732;28;20020;-79
2022/11/24 12:00:36;;;;;;;8.20;2.50;;;9.70;99.90;;;;;;5111033;28;20062;-79
2022/11/24 12:03:17;;;;;;;9.57;2.47;;;9.70;99.90;;;;;;5112056;28;20075;-79
2022/11/24 12:06:14;;;;;;;12.38;2.70;;;9.70;99.90;;;;;;5111253;28;20236;-76
2022/11/24 12:09:19;;;;;;;13.80;2.58;;;9.70;99.90;;;;;;5112041;28;20088;-75
2022/11/24 12:12:16;;;;;;;8.52;2.42;;;9.80;99.90;;;;;;5111571;28;20140;-79
2022/11/24 12:14:56;;;;;;;13.13;2.65;;;9.80;99.90;;;;;;5111007;28;20050;-75
2022/11/24 12:17:41;;;;;;;10.13;2.22;;;9.90;99.90;;;;;;5093423;28;20039;-78
2022/11/24 12:20:17;;;;;;;9.90;2.65;;;9.80;99.90;;;;;;5111206;28;20028;-77
2022/11/24 12:23:09;;;;;;;7.35;2.25;;;9.80;99.90;;;;;;5111351;28;20078;-70
2022/11/24 12:26:04;;;;;;;11.57;2.92;;;9.80;99.90;;;;;;5111279;28;20055;-72
2022/11/24 12:28:36;;;;;;;9.32;2.80;;;9.80;99.90;;;;;;5112686;28;20050;-80
2022/11/24 12:31:05;;;;;;;15.38;2.92;;;9.90;99.90;;;;;;5115965;28;20356;-79
2022/11/24 12:33:47;;;;;;;18.77;3.65;;;9.80;99.90;;;;;;5094253;28;20027;-80
2022/11/24 12:36:40;;;;;;;12.25;2.75;;;9.80;99.90;;;;;;5115844;28;20023;-72
2022/11/24 12:39:22;;;;;;;12.88;3.03;;;9.80;99.90;;;;;;5114459;28;20036;-79
2022/11/24 12:41:53;;;;;;;13.07;2.50;;;9.80;99.90;;;;;;5097345;28;20092;-80
2022/11/24 12:45:04;;;;;;;11.10;2.67;;;9.90;99.90;;;;;;5115838;28;20024;-76
2022/11/24 12:47:33;;;;;;;10.45;2.47;;;10.00;99.90;;;;;;5096485;28;20476;-79
2022/11/24 12:50:16;;;;;;;8.25;1.92;;;10.10;99.90;;;;;;5097377;28;20057;-79
2022/11/24 12:53:16;;;;;;;9.55;2.45;;;10.20;99.90;;;;;;5115385;28;20024;-80
2022/11/24 12:55:43;;;;;;;8.23;2.63;;;10.20;99.90;;;;;;5082158;28;20111;-79
2022/11/24 12:58:44;;;;;;;11.98;2.78;;;10.30;99.90;;;;;;5115570;28;20387;-80
2022/11/24 13:01:37;;;;;;;11.45;2.50;;;10.30;99.90;;;;;;5114929;28;20389;-79
2022/11/24 13:04:46;;;;;;;12.00;3.03;;;10.40;99.90;;;;;;5115337;28;20093;-74
2022/11/24 13:07:20;;;;;;;9.52;2.97;;;10.40;99.90;;;;;;5111259;28;20052;-77
2022/11/24 13:10:26;;;;;;;14.52;3.53;;;10.40;99.90;;;;;;5114801;28;20019;-80